createdAt,value
2023-03-16T00:01:56.263Z,71.40
2023-03-16T00:03:58.986Z,71.77
2023-03-16T00:06:02.055Z,71.73
2023-03-16T00:08:05.320Z,72.00
2023-03-16T00:10:09.458Z,71.66
2023-03-16T00:12:18.485Z,71.47
2023-03-16T00:14:23.013Z,71.88
2023-03-16T00:16:28.104Z,72.28
2023-03-16T00:18:31.263Z,72.48
2023-03-16T00:20:34.169Z,72.23
2023-03-16T00:22:36.830Z,71.96
2023-03-16T00:24:40.141Z,72.11
2023-03-16T00:26:42.805Z,72.37
2023-03-16T00:28:45.749Z,71.86
2023-03-16T00:30:51.580Z,71.59
2023-03-16T00:32:54.280Z,71.20
2023-03-16T00:34:56.896Z,71.14
2023-03-16T00:36:59.691Z,71.60
2023-03-16T00:39:02.425Z,71.23
2023-03-16T00:41:07.261Z,71.95
2023-03-16T00:43:10.118Z,72.39
2023-03-16T00:45:13.009Z,72.35
2023-03-16T00:47:15.918Z,71.88
2023-03-16T00:49:18.983Z,71.60
2023-03-16T00:51:22.946Z,71.16
2023-03-16T00:53:27.643Z,70.94
2023-03-16T00:55:32.236Z,71.13
2023-03-16T00:57:34.898Z,70.61
2023-03-16T00:59:38.688Z,70.50
2023-03-16T01:01:42.135Z,71.26
2023-03-16T01:03:44.888Z,71.45
2023-03-16T01:05:47.640Z,71.31
2023-03-16T01:07:50.321Z,71.61
2023-03-16T01:09:53.221Z,70.65
2023-03-16T01:11:56.134Z,70.74
2023-03-16T01:13:59.736Z,70.34
2023-03-16T01:16:04.475Z,70.15
2023-03-16T01:18:07.535Z,69.81
2023-03-16T01:20:12.672Z,70.12
2023-03-16T01:22:16.000Z,70.27
2023-03-16T01:24:18.630Z,70.47
2023-03-16T01:26:23.058Z,70.28
2023-03-16T01:28:28.766Z,70.73
2023-03-16T01:30:31.556Z,70.65
2023-03-16T01:32:34.306Z,71.10
2023-03-16T01:34:37.317Z,71.32
2023-03-16T01:36:40.531Z,71.80
2023-03-16T01:38:44.113Z,71.09
2023-03-16T01:40:51.380Z,71.16
2023-03-16T01:43:04.486Z,71.70
2023-03-16T01:45:47.486Z,71.11
2023-03-16T01:47:50.602Z,70.55
2023-03-16T01:49:56.964Z,70.38
2023-03-16T01:52:10.256Z,71.02
2023-03-16T01:54:38.484Z,70.55
2023-03-16T01:57:05.930Z,70.42
2023-03-16T01:59:14.262Z,70.43
2023-03-16T02:01:17.654Z,70.53
2023-03-16T02:03:21.665Z,70.86
2023-03-16T02:05:46.002Z,70.73
2023-03-16T02:07:58.478Z,70.54
2023-03-16T02:10:03.054Z,70.81
2023-03-16T02:12:07.886Z,70.51
2023-03-16T02:14:15.783Z,70.40
2023-03-16T02:16:20.110Z,70.27
2023-03-16T02:18:26.226Z,70.34
2023-03-16T02:20:48.170Z,70.55
2023-03-16T02:22:54.191Z,70.56
2023-03-16T02:24:57.380Z,70.10
2023-03-16T02:27:05.168Z,69.73
2023-03-16T02:29:48.323Z,69.56
2023-03-16T02:31:53.732Z,69.73
2023-03-16T02:33:56.603Z,70.58
2023-03-16T02:35:59.485Z,71.15
2023-03-16T02:38:04.017Z,71.18
2023-03-16T02:40:22.497Z,70.83
2023-03-16T02:42:28.371Z,71.01
2023-03-16T02:44:40.641Z,69.93
2023-03-16T02:46:44.511Z,69.91
2023-03-16T02:49:00.194Z,69.83
2023-03-16T02:51:03.422Z,69.59
2023-03-16T02:53:08.576Z,69.34
2023-03-16T02:55:12.130Z,69.43
2023-03-16T02:57:17.407Z,69.41
2023-03-16T02:59:20.953Z,69.47
2023-03-16T03:01:24.345Z,70.15
2023-03-16T03:03:27.326Z,70.80
2023-03-16T03:05:30.164Z,70.81
2023-03-16T03:07:32.884Z,70.54
2023-03-16T03:09:38.798Z,70.78
2023-03-16T03:11:41.747Z,70.61
2023-03-16T03:13:44.603Z,70.53
2023-03-16T03:15:50.410Z,70.59
2023-03-16T03:17:54.892Z,70.52
2023-03-16T03:19:59.176Z,70.35
2023-03-16T03:22:06.482Z,70.36
2023-03-16T03:24:09.938Z,70.49
2023-03-16T03:26:15.453Z,70.32
2023-03-16T03:28:19.843Z,70.40
2023-03-16T03:30:25.490Z,70.18
2023-03-16T03:32:28.132Z,70.44
2023-03-16T03:34:31.744Z,70.82
2023-03-16T03:36:35.294Z,70.63
2023-03-16T03:38:38.829Z,70.42
2023-03-16T03:40:42.054Z,70.55
2023-03-16T03:42:44.823Z,70.53
2023-03-16T03:44:48.578Z,70.95
2023-03-16T03:46:52.023Z,70.99
2023-03-16T03:48:54.857Z,70.86
2023-03-16T03:50:57.815Z,70.78
2023-03-16T03:53:36.348Z,70.94
2023-03-16T03:56:02.274Z,71.12
2023-03-16T03:58:05.919Z,71.10
2023-03-16T04:00:11.441Z,71.18
2023-03-16T04:02:17.891Z,71.28
2023-03-16T04:04:26.601Z,71.43
2023-03-16T04:06:32.087Z,71.55
2023-03-16T04:08:35.458Z,71.57
2023-03-16T04:10:38.366Z,71.50
2023-03-16T04:12:41.807Z,71.51
2023-03-16T04:14:48.098Z,71.72
2023-03-16T04:16:51.225Z,71.69
2023-03-16T04:18:54.928Z,71.82
2023-03-16T04:20:58.553Z,71.81
2023-03-16T04:23:01.372Z,71.98
2023-03-16T04:25:05.257Z,71.95
2023-03-16T04:27:09.759Z,71.96
2023-03-16T04:29:17.976Z,71.74
2023-03-16T04:31:23.641Z,72.15
2023-03-16T04:33:28.110Z,72.00
2023-03-16T04:35:31.885Z,72.20
2023-03-16T04:37:34.887Z,72.55
2023-03-16T04:39:38.321Z,72.26
2023-03-16T04:41:42.014Z,72.12
2023-03-16T04:43:48.978Z,72.27
2023-03-16T04:45:55.052Z,71.74
2023-03-16T04:47:58.590Z,71.82
2023-03-16T04:50:02.925Z,71.82
2023-03-16T04:52:07.755Z,71.67
2023-03-16T04:54:11.392Z,71.75
2023-03-16T04:56:18.445Z,71.96
2023-03-16T04:58:22.905Z,72.08
2023-03-16T05:00:26.477Z,71.79
2023-03-16T05:02:43.166Z,72.02
2023-03-16T05:04:47.231Z,72.39
2023-03-16T05:06:51.521Z,72.47
2023-03-16T05:08:59.606Z,72.26
2023-03-16T05:11:02.828Z,72.17
2023-03-16T05:13:08.239Z,71.77
2023-03-16T05:15:11.783Z,71.11
2023-03-16T05:17:20.561Z,71.30
2023-03-16T05:19:23.186Z,71.36
2023-03-16T05:21:26.520Z,71.27
2023-03-16T05:23:34.366Z,70.90
2023-03-16T05:25:40.418Z,70.74
2023-03-16T05:27:46.006Z,70.45
2023-03-16T05:29:49.192Z,70.38
2023-03-16T05:31:56.892Z,70.48
2023-03-16T05:34:00.786Z,69.99
2023-03-16T05:36:04.418Z,69.88
2023-03-16T05:38:08.715Z,69.78
2023-03-16T05:40:18.224Z,69.65
2023-03-16T05:42:27.123Z,69.68
2023-03-16T05:44:35.438Z,69.80
2023-03-16T05:46:47.655Z,70.02
2023-03-16T05:48:50.284Z,70.31
2023-03-16T05:50:55.288Z,70.40
2023-03-16T05:53:02.709Z,70.39
2023-03-16T05:55:07.726Z,70.39
2023-03-16T05:57:10.909Z,70.49
2023-03-16T05:59:14.284Z,70.25
2023-03-16T06:01:16.903Z,69.99
2023-03-16T06:03:22.774Z,70.34
2023-03-16T06:05:26.047Z,70.53
2023-03-16T06:07:32.048Z,70.57
2023-03-16T06:09:35.698Z,70.36
2023-03-16T06:11:39.420Z,70.49
2023-03-16T06:13:42.037Z,70.03
2023-03-16T06:15:44.678Z,69.69
2023-03-16T06:17:48.854Z,69.85
2023-03-16T06:19:51.773Z,70.32
2023-03-16T06:21:54.550Z,70.76
2023-03-16T06:23:57.219Z,70.13
2023-03-16T06:26:01.234Z,70.05
2023-03-16T06:28:06.137Z,70.31
2023-03-16T06:30:11.944Z,70.10
2023-03-16T06:32:15.655Z,70.30
2023-03-16T06:34:18.995Z,69.95
2023-03-16T06:36:21.722Z,70.06
2023-03-16T06:38:29.339Z,70.26
2023-03-16T06:40:37.816Z,70.13
2023-03-16T06:42:41.620Z,69.88
2023-03-16T06:44:46.164Z,70.06
2023-03-16T06:46:48.992Z,70.15
2023-03-16T06:48:51.925Z,69.91
2023-03-16T06:50:57.513Z,70.07
2023-03-16T06:53:03.055Z,70.06
2023-03-16T06:55:06.709Z,70.03
2023-03-16T06:57:10.236Z,70.14
2023-03-16T06:59:12.854Z,70.22
2023-03-16T07:01:15.841Z,70.31
2023-03-16T07:03:19.416Z,70.29
2023-03-16T07:05:25.997Z,70.49
2023-03-16T07:07:28.640Z,70.41
2023-03-16T07:09:32.059Z,70.47
2023-03-16T07:11:34.764Z,70.67
2023-03-16T07:13:37.630Z,70.90
2023-03-16T07:15:40.431Z,70.89
2023-03-16T07:17:43.508Z,70.85
2023-03-16T07:19:46.340Z,70.94
2023-03-16T07:21:49.779Z,71.00
2023-03-16T07:23:55.831Z,71.00
2023-03-16T07:26:00.962Z,71.04
2023-03-16T07:28:04.325Z,70.82
2023-03-16T07:30:14.127Z,70.88
2023-03-16T07:32:19.276Z,71.15
2023-03-16T07:34:22.322Z,71.00
2023-03-16T07:36:29.494Z,71.07
2023-03-16T07:38:34.921Z,71.05
2023-03-16T07:40:41.590Z,70.85
2023-03-16T07:42:49.893Z,71.01
2023-03-16T07:45:04.341Z,71.14
2023-03-16T07:47:07.383Z,70.93
2023-03-16T07:49:13.346Z,71.07
2023-03-16T07:51:16.597Z,71.23
2023-03-16T07:53:22.843Z,71.03
2023-03-16T07:55:32.976Z,71.01
2023-03-16T07:57:35.774Z,70.76
2023-03-16T07:59:38.651Z,70.48
2023-03-16T08:01:41.534Z,70.53
2023-03-16T08:03:45.920Z,70.69
2023-03-16T08:05:48.600Z,70.85
2023-03-16T08:07:51.721Z,70.76
2023-03-16T08:09:58.381Z,70.77
2023-03-16T08:12:08.002Z,70.89
2023-03-16T08:14:12.017Z,71.05
2023-03-16T08:16:32.611Z,70.86
2023-03-16T08:18:35.279Z,70.82
2023-03-16T08:20:38.084Z,70.58
2023-03-16T08:22:46.328Z,70.61
2023-03-16T08:24:50.500Z,70.68
2023-03-16T08:26:53.796Z,70.48
2023-03-16T08:28:56.586Z,70.57
2023-03-16T08:30:59.248Z,70.61
2023-03-16T08:33:10.388Z,70.65
2023-03-16T08:35:15.340Z,70.74
2023-03-16T08:37:18.521Z,71.06
2023-03-16T08:39:21.733Z,70.78
2023-03-16T08:41:24.669Z,70.78
2023-03-16T08:43:28.196Z,70.49
2023-03-16T08:45:31.000Z,70.76
2023-03-16T08:47:34.068Z,71.04
2023-03-16T08:49:38.018Z,70.94
2023-03-16T08:51:45.088Z,70.59
2023-03-16T08:53:47.931Z,70.81
2023-03-16T08:55:50.595Z,70.67
2023-03-16T08:57:53.201Z,70.94
2023-03-16T08:59:55.908Z,71.00
2023-03-16T09:01:58.856Z,70.77
2023-03-16T09:04:03.493Z,71.00
2023-03-16T09:06:10.121Z,70.99
2023-03-16T09:08:12.892Z,70.94
2023-03-16T09:10:19.784Z,71.00
2023-03-16T09:12:23.494Z,70.98
2023-03-16T09:14:26.749Z,71.09
2023-03-16T09:16:31.115Z,70.72
2023-03-16T09:18:36.443Z,70.66
2023-03-16T09:20:40.829Z,70.53
2023-03-16T09:22:43.642Z,69.50
2023-03-16T09:24:47.263Z,68.70
2023-03-16T09:26:50.622Z,69.47
2023-03-16T09:28:54.671Z,69.83
2023-03-16T09:30:58.159Z,69.80
2023-03-16T09:33:00.971Z,69.68
2023-03-16T09:35:06.258Z,69.87
2023-03-16T09:37:09.707Z,69.69
2023-03-16T09:39:13.528Z,68.98
2023-03-16T09:41:36.862Z,68.47
2023-03-16T09:43:45.490Z,68.63
2023-03-16T09:46:11.965Z,68.34
2023-03-16T09:48:17.008Z,68.10
2023-03-16T09:50:28.183Z,68.44
2023-03-16T09:53:10.561Z,68.71
2023-03-16T09:55:33.222Z,68.62
2023-03-16T09:57:41.113Z,68.06
2023-03-16T09:59:45.513Z,67.13
2023-03-16T10:02:04.342Z,66.91
2023-03-16T10:04:40.542Z,66.93
2023-03-16T10:07:00.909Z,66.72
2023-03-16T10:09:31.950Z,65.35
2023-03-16T10:11:42.912Z,65.25
2023-03-16T10:13:54.882Z,64.85
2023-03-16T10:16:02.715Z,64.05
2023-03-16T10:18:18.109Z,64.14
2023-03-16T10:20:24.954Z,64.05
2023-03-16T10:22:35.049Z,63.49
2023-03-16T10:25:01.302Z,63.12
2023-03-16T10:27:07.604Z,62.62
2023-03-16T10:29:14.645Z,62.48
2023-03-16T10:31:22.982Z,62.20
2023-03-16T10:33:32.533Z,61.78
2023-03-16T10:36:09.331Z,61.84
2023-03-16T10:38:39.871Z,61.75
2023-03-16T10:40:42.845Z,60.55
2023-03-16T10:42:47.793Z,60.59
2023-03-16T10:44:57.007Z,60.69
2023-03-16T10:47:04.285Z,60.75
2023-03-16T10:49:20.963Z,60.93
2023-03-16T10:51:27.402Z,60.99
2023-03-16T10:53:35.408Z,60.68
2023-03-16T10:55:43.692Z,60.05
2023-03-16T10:57:55.185Z,59.96
2023-03-16T11:00:07.247Z,59.60
2023-03-16T11:02:22.787Z,59.85
2023-03-16T11:04:26.108Z,59.85
2023-03-16T11:06:32.643Z,59.23
2023-03-16T11:08:39.793Z,59.34
2023-03-16T11:10:55.505Z,59.27
2023-03-16T11:13:19.566Z,58.98
2023-03-16T11:15:26.566Z,58.85
2023-03-16T11:17:42.017Z,58.94
2023-03-16T11:19:57.588Z,58.49
2023-03-16T11:22:02.986Z,58.30
2023-03-16T11:24:14.909Z,58.26
2023-03-16T11:26:30.288Z,58.05
2023-03-16T11:28:42.186Z,57.44
2023-03-16T11:31:08.896Z,57.72
2023-03-16T11:33:14.277Z,57.97
2023-03-16T11:35:19.698Z,57.91
2023-03-16T11:37:49.416Z,57.92
2023-03-16T11:40:02.179Z,57.35
2023-03-16T11:42:20.599Z,57.50
2023-03-16T11:44:52.025Z,57.83
2023-03-16T11:47:25.834Z,57.67
2023-03-16T11:49:45.802Z,57.05
2023-03-16T11:52:43.077Z,57.68
2023-03-16T11:55:19.414Z,57.50
2023-03-16T11:57:42.059Z,56.64
2023-03-16T12:00:06.444Z,56.51
2023-03-16T12:02:09.984Z,56.87
2023-03-16T12:04:30.595Z,56.84
2023-03-16T12:07:01.268Z,56.60
2023-03-16T12:09:13.482Z,56.40
2023-03-16T12:11:31.503Z,56.39
2023-03-16T12:14:13.205Z,56.04
2023-03-16T12:16:49.932Z,56.05
2023-03-16T12:19:00.105Z,55.76
2023-03-16T12:21:09.317Z,55.99
2023-03-16T12:23:42.458Z,55.53
2023-03-16T12:25:47.561Z,55.41
2023-03-16T12:27:56.008Z,55.08
2023-03-16T12:30:27.409Z,55.53
2023-03-16T12:32:33.797Z,55.91
2023-03-16T12:34:51.139Z,55.67
2023-03-16T12:37:05.426Z,55.52
2023-03-16T12:39:18.628Z,55.03
2023-03-16T12:41:30.481Z,55.25
2023-03-16T12:43:52.410Z,55.66
2023-03-16T12:46:07.689Z,55.23
2023-03-16T12:48:34.038Z,55.03
2023-03-16T12:50:49.564Z,55.06
2023-03-16T12:52:53.857Z,54.76
2023-03-16T12:55:13.900Z,54.41
2023-03-16T12:57:18.608Z,54.84
2023-03-16T12:59:23.741Z,54.58
2023-03-16T13:01:31.433Z,54.74
2023-03-16T13:03:36.365Z,54.46
2023-03-16T13:05:47.610Z,55.05
2023-03-16T13:08:03.829Z,55.05
2023-03-16T13:10:11.384Z,54.54
2023-03-16T13:12:36.962Z,53.93
2023-03-16T13:14:42.608Z,54.68
2023-03-16T13:16:47.705Z,54.83
2023-03-16T13:18:52.734Z,54.82
2023-03-16T13:21:02.047Z,54.60
2023-03-16T13:23:28.840Z,54.57
2023-03-16T13:25:32.348Z,54.43
2023-03-16T13:27:35.794Z,53.53
2023-03-16T13:29:39.085Z,53.54
2023-03-16T13:31:42.858Z,54.27
2023-03-16T13:33:47.154Z,54.28
2023-03-16T13:35:52.593Z,53.47
2023-03-16T13:38:05.755Z,53.53
2023-03-16T13:40:20.298Z,53.82
2023-03-16T13:42:25.130Z,53.13
2023-03-16T13:44:29.480Z,52.86
2023-03-16T13:46:32.956Z,52.25
2023-03-16T13:48:37.556Z,53.23
2023-03-16T13:50:44.747Z,52.89
2023-03-16T13:52:58.151Z,52.90
2023-03-16T13:55:06.670Z,52.75
2023-03-16T13:57:12.658Z,52.46
2023-03-16T13:59:17.764Z,52.62
2023-03-16T14:01:29.665Z,52.77
2023-03-16T14:03:38.145Z,52.67
2023-03-16T14:05:41.324Z,52.66
2023-03-16T14:07:51.253Z,52.51
2023-03-16T14:09:58.487Z,53.20
2023-03-16T14:12:03.909Z,52.31
2023-03-16T14:14:16.053Z,52.26
2023-03-16T14:16:20.407Z,52.19
2023-03-16T14:18:29.405Z,52.44
2023-03-16T14:20:34.988Z,52.39
2023-03-16T14:22:43.901Z,51.74
2023-03-16T14:24:55.237Z,51.77
2023-03-16T14:27:10.160Z,51.40
2023-03-16T14:29:30.549Z,51.00
2023-03-16T14:31:38.834Z,50.48
2023-03-16T14:33:46.059Z,50.55
2023-03-16T14:35:56.152Z,50.95
2023-03-16T14:38:24.644Z,51.47
2023-03-16T14:40:32.131Z,51.36
2023-03-16T14:42:35.339Z,51.09
2023-03-16T14:44:38.858Z,50.52
2023-03-16T14:46:42.368Z,50.64
2023-03-16T14:48:45.731Z,50.92
2023-03-16T14:50:57.432Z,51.03
2023-03-16T14:53:04.299Z,50.88
2023-03-16T14:55:13.293Z,50.97
2023-03-16T14:57:17.627Z,50.84
2023-03-16T14:59:23.827Z,50.69
2023-03-16T15:01:27.808Z,50.32
2023-03-16T15:03:34.304Z,50.22
2023-03-16T15:05:42.367Z,50.55
2023-03-16T15:07:46.308Z,50.21
2023-03-16T15:09:50.574Z,49.85
2023-03-16T15:11:55.546Z,49.69
2023-03-16T15:14:16.361Z,49.16
2023-03-16T15:16:22.105Z,49.20
2023-03-16T15:18:25.144Z,48.79
2023-03-16T15:20:35.908Z,48.64
2023-03-16T15:22:39.307Z,48.32
2023-03-16T15:24:42.558Z,47.48
2023-03-16T15:26:45.434Z,46.84
2023-03-16T15:28:48.360Z,46.21
2023-03-16T15:30:53.762Z,46.10
2023-03-16T15:32:56.656Z,45.85
2023-03-16T15:34:59.285Z,45.88
2023-03-16T15:37:01.902Z,46.12
2023-03-16T15:39:05.721Z,45.51
2023-03-16T15:41:11.316Z,45.38
2023-03-16T15:43:17.874Z,45.49
2023-03-16T15:45:22.517Z,45.00
2023-03-16T15:47:25.209Z,44.56
2023-03-16T15:49:30.176Z,44.83
2023-03-16T15:51:35.187Z,44.72
2023-03-16T15:53:50.995Z,44.69
2023-03-16T15:55:59.483Z,44.42
2023-03-16T15:58:02.650Z,44.24
2023-03-16T16:00:07.235Z,43.60
2023-03-16T16:02:31.203Z,43.06
2023-03-16T16:04:34.345Z,41.64
2023-03-16T16:06:37.296Z,41.31
2023-03-16T16:08:41.869Z,41.63
2023-03-16T16:10:46.140Z,41.81
2023-03-16T16:12:51.522Z,41.91
2023-03-16T16:14:56.185Z,42.74
2023-03-16T16:16:59.557Z,43.15
2023-03-16T16:19:02.256Z,43.40
2023-03-16T16:21:07.249Z,43.68
2023-03-16T16:23:10.614Z,43.82
2023-03-16T16:25:14.117Z,43.93
2023-03-16T16:27:16.888Z,43.96
2023-03-16T16:29:25.632Z,44.03
2023-03-16T16:31:30.668Z,44.27
2023-03-16T16:33:35.752Z,44.57
2023-03-16T16:35:38.529Z,44.43
2023-03-16T16:37:41.562Z,44.65
2023-03-16T16:39:44.710Z,44.65
2023-03-16T16:41:52.582Z,44.68
2023-03-16T16:43:56.989Z,45.30
2023-03-16T16:46:02.043Z,45.34
2023-03-16T16:48:29.166Z,45.07
2023-03-16T16:50:33.703Z,45.72
2023-03-16T16:52:37.182Z,45.88
2023-03-16T16:54:39.852Z,46.19
2023-03-16T16:56:42.831Z,46.08
2023-03-16T16:58:46.566Z,46.10
2023-03-16T17:00:59.155Z,46.41
2023-03-16T17:03:02.490Z,46.41
2023-03-16T17:05:05.286Z,46.21
2023-03-16T17:07:11.544Z,46.55
2023-03-16T17:09:15.129Z,46.88
2023-03-16T17:11:29.152Z,46.64
2023-03-16T17:13:39.597Z,46.73
2023-03-16T17:15:44.108Z,47.17
2023-03-16T17:17:47.824Z,47.64
2023-03-16T17:19:50.379Z,46.82
2023-03-16T17:21:55.693Z,46.54
2023-03-16T17:24:00.299Z,46.77
2023-03-16T17:26:18.394Z,46.49
2023-03-16T17:28:23.607Z,46.44
2023-03-16T17:30:29.733Z,46.99
2023-03-16T17:32:33.404Z,46.93
2023-03-16T17:34:36.130Z,47.24
2023-03-16T17:36:39.250Z,46.90
2023-03-16T17:38:43.451Z,47.13
2023-03-16T17:40:48.978Z,47.61
2023-03-16T17:42:55.845Z,47.49
2023-03-16T17:44:58.854Z,47.74
2023-03-16T17:47:02.959Z,47.45
2023-03-16T17:49:14.053Z,47.48
2023-03-16T17:51:20.103Z,47.44
2023-03-16T17:53:26.854Z,47.58
2023-03-16T17:55:31.130Z,48.49
2023-03-16T17:57:36.506Z,47.48
2023-03-16T17:59:39.791Z,47.44
2023-03-16T18:01:46.320Z,47.87
2023-03-16T18:03:49.678Z,47.94
2023-03-16T18:05:53.528Z,47.27
2023-03-16T18:08:20.980Z,47.67
2023-03-16T18:10:29.858Z,48.19
2023-03-16T18:12:34.135Z,47.87
2023-03-16T18:14:39.669Z,48.22
2023-03-16T18:16:42.719Z,47.94
2023-03-16T18:18:46.347Z,48.00
2023-03-16T18:20:50.928Z,47.87
2023-03-16T18:22:56.448Z,48.34
2023-03-16T18:25:01.989Z,49.39
2023-03-16T18:27:08.333Z,48.84
2023-03-16T18:29:14.073Z,48.92
2023-03-16T18:31:27.212Z,49.29
2023-03-16T18:33:40.971Z,48.82
2023-03-16T18:35:44.572Z,49.25
2023-03-16T18:37:49.033Z,49.17
2023-03-16T18:39:54.260Z,48.83
2023-03-16T18:41:57.811Z,49.07
2023-03-16T18:44:16.849Z,49.73
2023-03-16T18:46:31.539Z,49.49
2023-03-16T18:48:35.825Z,49.98
2023-03-16T18:50:43.661Z,50.60
2023-03-16T18:52:48.038Z,50.53
2023-03-16T18:54:55.773Z,50.90
2023-03-16T18:57:01.964Z,51.26
2023-03-16T18:59:05.365Z,51.74
2023-03-16T19:01:21.357Z,52.13
2023-03-16T19:03:35.118Z,51.61
2023-03-16T19:05:39.602Z,51.53
2023-03-16T19:07:50.338Z,51.76
2023-03-16T19:09:54.951Z,51.76
2023-03-16T19:11:59.117Z,51.85
2023-03-16T19:14:03.973Z,52.54
2023-03-16T19:16:16.534Z,52.60
2023-03-16T19:18:23.007Z,51.88
2023-03-16T19:20:33.007Z,51.86
2023-03-16T19:22:37.363Z,52.05
2023-03-16T19:24:49.355Z,52.03
2023-03-16T19:26:55.151Z,52.16
2023-03-16T19:29:02.167Z,52.07
2023-03-16T19:31:16.635Z,51.48
2023-03-16T19:33:27.950Z,51.52
2023-03-16T19:35:50.347Z,51.00
2023-03-16T19:37:55.094Z,50.56
2023-03-16T19:40:00.388Z,50.70
2023-03-16T19:42:06.280Z,50.84
2023-03-16T19:44:17.425Z,50.82
2023-03-16T19:46:22.045Z,50.83
2023-03-16T19:48:33.742Z,51.54
2023-03-16T19:50:36.640Z,51.17
2023-03-16T19:52:41.974Z,50.74
2023-03-16T19:54:45.671Z,51.21
2023-03-16T19:56:52.494Z,51.42
2023-03-16T19:58:55.624Z,51.04
2023-03-16T20:01:06.455Z,50.76
2023-03-16T20:03:10.984Z,50.48
2023-03-16T20:05:20.938Z,50.41
2023-03-16T20:07:24.915Z,50.01
2023-03-16T20:09:29.360Z,50.38
2023-03-16T20:11:33.067Z,50.26
2023-03-16T20:13:37.336Z,49.90
2023-03-16T20:15:40.800Z,49.54
2023-03-16T20:17:46.083Z,49.52
2023-03-16T20:19:50.864Z,49.56
2023-03-16T20:21:54.821Z,49.89
2023-03-16T20:23:59.151Z,49.91
2023-03-16T20:26:03.777Z,50.14
2023-03-16T20:28:22.513Z,51.01
2023-03-16T20:30:26.611Z,51.37
2023-03-16T20:32:35.022Z,51.62
2023-03-16T20:34:40.910Z,50.99
2023-03-16T20:36:44.873Z,50.87
2023-03-16T20:38:47.978Z,50.86
2023-03-16T20:40:54.194Z,50.71
2023-03-16T20:42:56.816Z,50.22
2023-03-16T20:45:02.037Z,50.78
2023-03-16T20:47:14.758Z,50.84
2023-03-16T20:49:22.182Z,50.40
2023-03-16T20:51:28.936Z,50.63
2023-03-16T20:53:32.300Z,50.33
2023-03-16T20:55:36.545Z,50.11
2023-03-16T20:57:46.343Z,50.19
2023-03-16T20:59:51.883Z,50.76
2023-03-16T21:01:56.115Z,50.32
2023-03-16T21:04:00.065Z,50.10
2023-03-16T21:06:14.544Z,49.86
2023-03-16T21:08:19.377Z,49.79
2023-03-16T21:10:24.705Z,50.74
2023-03-16T21:12:32.338Z,51.10
2023-03-16T21:14:35.281Z,51.74
2023-03-16T21:16:40.374Z,52.61
2023-03-16T21:18:44.664Z,52.41
2023-03-16T21:20:49.994Z,52.98
2023-03-16T21:22:53.656Z,53.28
2023-03-16T21:24:57.386Z,53.22
2023-03-16T21:27:02.115Z,53.38
2023-03-16T21:29:08.709Z,52.89
2023-03-16T21:31:19.577Z,52.37
2023-03-16T21:33:31.134Z,51.83
2023-03-16T21:35:37.412Z,52.12
2023-03-16T21:37:40.984Z,52.64
2023-03-16T21:39:46.420Z,52.36
2023-03-16T21:41:50.718Z,52.47
2023-03-16T21:43:54.475Z,52.97
2023-03-16T21:45:57.977Z,53.03
2023-03-16T21:48:01.019Z,53.49
2023-03-16T21:50:15.325Z,53.43
2023-03-16T21:52:23.755Z,52.90
2023-03-16T21:54:26.476Z,52.96
2023-03-16T21:56:29.090Z,53.02
2023-03-16T21:58:32.110Z,52.71
2023-03-16T22:00:37.102Z,53.01
2023-03-16T22:02:41.012Z,53.11
2023-03-16T22:04:44.206Z,53.12
2023-03-16T22:06:47.226Z,53.24
2023-03-16T22:08:51.247Z,53.62
2023-03-16T22:10:55.534Z,53.89
2023-03-16T22:12:58.736Z,53.98
2023-03-16T22:15:01.487Z,53.27
2023-03-16T22:17:05.805Z,53.09
2023-03-16T22:19:19.350Z,52.81
2023-03-16T22:21:38.675Z,52.58
2023-03-16T22:23:41.487Z,52.97
2023-03-16T22:25:44.103Z,53.00
2023-03-16T22:27:47.463Z,52.65
2023-03-16T22:29:51.081Z,53.05
2023-03-16T22:32:18.411Z,53.01
2023-03-16T22:34:28.868Z,52.73
2023-03-16T22:36:33.130Z,52.87
2023-03-16T22:38:36.256Z,53.54
2023-03-16T22:40:40.531Z,53.87
2023-03-16T22:42:43.270Z,54.20
2023-03-16T22:44:46.095Z,54.46
2023-03-16T22:46:50.755Z,54.46
2023-03-16T22:48:55.056Z,54.51
2023-03-16T22:51:10.752Z,54.14
2023-03-16T22:53:24.888Z,53.27
2023-03-16T22:55:33.262Z,53.01
2023-03-16T22:57:36.154Z,53.17
2023-03-16T22:59:38.709Z,53.77
2023-03-16T23:01:44.312Z,54.03
2023-03-16T23:03:49.610Z,54.26
2023-03-16T23:05:53.265Z,54.40
2023-03-16T23:07:59.929Z,54.74
2023-03-16T23:10:02.689Z,55.44
2023-03-16T23:12:14.063Z,55.52
2023-03-16T23:14:22.449Z,55.36
2023-03-16T23:16:46.114Z,55.24
2023-03-16T23:18:50.574Z,54.75
2023-03-16T23:20:53.562Z,55.19
2023-03-16T23:22:56.627Z,55.53
2023-03-16T23:24:59.280Z,55.76
2023-03-16T23:27:03.397Z,55.66
2023-03-16T23:29:06.099Z,55.37
2023-03-16T23:31:13.506Z,55.75
2023-03-16T23:33:16.766Z,55.66
2023-03-16T23:35:28.930Z,55.84
2023-03-16T23:37:32.361Z,55.58
2023-03-16T23:39:35.537Z,55.42
2023-03-16T23:41:41.580Z,54.63
2023-03-16T23:43:45.787Z,55.00
2023-03-16T23:45:52.098Z,54.75
2023-03-16T23:47:57.486Z,55.10
2023-03-16T23:50:00.718Z,54.92
2023-03-16T23:52:04.507Z,55.19
2023-03-16T23:54:17.911Z,55.22
2023-03-16T23:56:22.212Z,55.64
2023-03-16T23:58:25.291Z,55.60
